createdAt,value
2019-03-13T00:01:35.138Z,32.00
2019-03-13T00:04:01.641Z,32.00
2019-03-13T00:06:28.183Z,32.40
2019-03-13T00:08:54.469Z,31.90
2019-03-13T00:11:20.780Z,32.20
2019-03-13T00:13:47.166Z,32.00
2019-03-13T00:16:33.431Z,32.00
2019-03-13T00:18:59.828Z,32.30
2019-03-13T00:21:26.162Z,32.60
2019-03-13T00:23:52.549Z,32.40
2019-03-13T00:26:18.981Z,32.20
2019-03-13T00:28:45.284Z,32.40
2019-03-13T00:31:11.552Z,32.50
2019-03-13T00:33:37.926Z,32.60
2019-03-13T00:36:04.322Z,32.80
2019-03-13T00:38:30.751Z,33.00
2019-03-13T00:40:57.080Z,32.30
2019-03-13T00:43:23.515Z,32.20
2019-03-13T00:45:49.975Z,32.20
2019-03-13T00:48:16.295Z,33.10
2019-03-13T00:50:42.651Z,32.90
2019-03-13T00:53:08.977Z,33.10
2019-03-13T00:55:35.272Z,33.10
2019-03-13T00:58:02.919Z,33.30
2019-03-13T01:00:31.122Z,33.30
2019-03-13T01:02:57.459Z,33.00
2019-03-13T01:05:25.666Z,33.60
2019-03-13T01:07:52.077Z,33.90
2019-03-13T01:10:18.685Z,33.90
2019-03-13T01:12:45.123Z,33.90
2019-03-13T01:15:11.498Z,33.40
2019-03-13T01:17:48.540Z,33.30
2019-03-13T01:20:14.980Z,33.20
2019-03-13T01:22:41.509Z,32.90
2019-03-13T01:25:08.747Z,33.30
2019-03-13T01:27:35.149Z,33.80
2019-03-13T01:30:01.728Z,33.50
2019-03-13T01:32:49.607Z,33.10
2019-03-13T01:35:17.940Z,33.20
2019-03-13T01:37:44.231Z,33.30
2019-03-13T01:40:10.856Z,33.20
2019-03-13T01:42:37.176Z,33.40
2019-03-13T01:45:06.266Z,33.50
2019-03-13T01:47:32.573Z,33.60
2019-03-13T01:49:58.890Z,33.40
2019-03-13T01:52:26.294Z,33.80
2019-03-13T01:54:52.609Z,34.00
2019-03-13T01:57:18.916Z,34.00
2019-03-13T01:59:46.505Z,34.00
2019-03-13T02:02:12.932Z,34.30
2019-03-13T02:04:39.236Z,34.00
2019-03-13T02:07:05.564Z,34.30
2019-03-13T02:09:31.861Z,34.50
2019-03-13T02:11:58.430Z,34.40
2019-03-13T02:14:24.732Z,34.80
2019-03-13T02:16:51.048Z,34.90
2019-03-13T02:19:37.251Z,34.50
2019-03-13T02:22:04.687Z,34.80
2019-03-13T02:24:32.123Z,34.90
2019-03-13T02:26:58.418Z,34.60
2019-03-13T02:29:24.737Z,34.80
2019-03-13T02:31:51.146Z,35.10
2019-03-13T02:34:17.572Z,35.10
2019-03-13T02:36:43.913Z,34.90
2019-03-13T02:39:10.207Z,34.80
2019-03-13T02:41:36.932Z,35.00
2019-03-13T02:44:03.463Z,34.80
2019-03-13T02:46:29.879Z,34.80
2019-03-13T02:48:56.211Z,34.80
2019-03-13T02:51:22.629Z,35.40
2019-03-13T02:53:49.026Z,35.70
2019-03-13T02:56:15.371Z,35.30
2019-03-13T02:58:41.859Z,35.50
2019-03-13T03:01:30.167Z,35.50
2019-03-13T03:03:58.588Z,35.40
2019-03-13T03:06:25.042Z,35.80
2019-03-13T03:08:51.464Z,36.00
2019-03-13T03:11:17.757Z,36.00
2019-03-13T03:13:44.282Z,36.00
2019-03-13T03:16:10.596Z,35.90
2019-03-13T03:18:36.922Z,35.90
2019-03-13T03:21:03.247Z,35.80
2019-03-13T03:23:29.700Z,35.70
2019-03-13T03:25:56.152Z,36.30
2019-03-13T03:28:42.318Z,36.40
2019-03-13T03:31:08.782Z,36.10
2019-03-13T03:33:35.273Z,35.90
2019-03-13T03:36:14.958Z,36.20
2019-03-13T03:38:41.476Z,36.30
2019-03-13T03:41:07.824Z,36.50
2019-03-13T03:43:40.691Z,36.40
2019-03-13T03:46:02.438Z,36.60
2019-03-13T03:48:39.661Z,37.30
2019-03-13T03:51:05.990Z,37.00
2019-03-13T03:53:32.447Z,37.40
2019-03-13T03:56:00.732Z,37.70
2019-03-13T03:58:29.525Z,37.50
2019-03-13T04:01:08.522Z,37.00
2019-03-13T04:03:35.058Z,36.70
2019-03-13T04:06:02.688Z,36.30
2019-03-13T04:08:39.984Z,36.40
2019-03-13T04:11:17.227Z,36.60
2019-03-13T04:13:45.183Z,36.90
2019-03-13T04:16:11.679Z,37.30
2019-03-13T04:18:37.989Z,37.30
2019-03-13T04:21:04.299Z,37.10
2019-03-13T04:23:30.605Z,37.90
2019-03-13T04:25:57.015Z,38.90
2019-03-13T04:28:23.343Z,39.30
2019-03-13T04:30:49.844Z,39.20
2019-03-13T04:33:17.485Z,39.60
2019-03-13T04:35:43.795Z,40.20
2019-03-13T04:38:10.217Z,39.90
2019-03-13T04:40:36.502Z,40.00
2019-03-13T04:43:02.933Z,41.30
2019-03-13T04:45:29.323Z,42.40
2019-03-13T04:47:55.729Z,41.80
2019-03-13T04:50:42.148Z,41.30
2019-03-13T04:53:08.681Z,41.70
2019-03-13T04:55:35.024Z,40.70
2019-03-13T04:58:01.304Z,40.50
2019-03-13T05:00:27.636Z,40.60
2019-03-13T05:02:53.909Z,40.40
2019-03-13T05:05:35.896Z,40.40
2019-03-13T05:08:02.358Z,39.80
2019-03-13T05:10:28.724Z,39.60
2019-03-13T05:12:55.078Z,39.40
2019-03-13T05:15:32.358Z,39.50
2019-03-13T05:17:58.732Z,39.50
2019-03-13T05:20:25.064Z,39.60
2019-03-13T05:22:52.555Z,39.40
2019-03-13T05:25:19.406Z,39.50
2019-03-13T05:27:56.707Z,39.60
2019-03-13T05:30:28.286Z,39.70
2019-03-13T05:32:56.912Z,39.20
2019-03-13T05:35:23.268Z,39.50
2019-03-13T05:38:02.873Z,40.30
2019-03-13T05:40:29.203Z,40.60
2019-03-13T05:42:55.618Z,39.80
2019-03-13T05:45:22.040Z,39.30
2019-03-13T05:48:08.378Z,39.10
2019-03-13T05:50:35.027Z,39.00
2019-03-13T05:53:01.388Z,41.10
2019-03-13T05:55:27.729Z,39.90
2019-03-13T05:58:14.015Z,40.20
2019-03-13T06:00:40.543Z,40.70
2019-03-13T06:03:06.957Z,40.60
2019-03-13T06:05:33.464Z,41.70
2019-03-13T06:07:59.782Z,42.70
2019-03-13T06:10:26.064Z,42.60
2019-03-13T06:12:52.519Z,42.50
2019-03-13T06:15:18.872Z,42.20
2019-03-13T06:17:46.207Z,42.30
2019-03-13T06:20:17.294Z,42.40
2019-03-13T06:22:43.807Z,41.00
2019-03-13T06:25:11.131Z,40.50
2019-03-13T06:27:37.692Z,40.20
2019-03-13T06:33:12.593Z,39.70
2019-03-13T06:35:39.016Z,40.10
2019-03-13T06:38:05.424Z,40.40
2019-03-13T06:40:31.727Z,40.00
2019-03-13T06:42:58.025Z,39.50
2019-03-13T06:45:24.347Z,39.20
2019-03-13T06:47:50.778Z,38.90
2019-03-13T06:50:18.785Z,38.70
2019-03-13T06:52:45.221Z,38.50
2019-03-13T06:55:11.530Z,54.30
2019-03-13T06:57:37.834Z,57.90
2019-03-13T07:00:12.597Z,56.10
2019-03-13T07:02:40.779Z,50.60
2019-03-13T07:05:11.831Z,46.20
2019-03-13T07:07:43.191Z,42.90
2019-03-13T07:10:14.357Z,39.80
2019-03-13T07:12:52.767Z,37.80
2019-03-13T07:15:21.163Z,39.00
2019-03-13T07:17:56.250Z,38.20
2019-03-13T07:20:31.989Z,37.70
2019-03-13T07:23:00.246Z,36.50
2019-03-13T07:25:32.004Z,36.80
2019-03-13T07:28:00.242Z,36.30
2019-03-13T07:30:28.513Z,34.40
2019-03-13T07:33:05.856Z,35.80
2019-03-13T07:35:36.834Z,35.10
2019-03-13T07:38:05.177Z,36.50
2019-03-13T07:40:36.201Z,36.50
2019-03-13T07:43:20.571Z,35.50
2019-03-13T07:46:05.604Z,35.20
2019-03-13T07:48:39.804Z,36.30
2019-03-13T07:51:08.010Z,35.50
2019-03-13T07:53:36.315Z,32.30
2019-03-13T07:56:16.433Z,31.40
2019-03-13T07:58:53.722Z,28.90
2019-03-13T08:01:27.763Z,27.40
2019-03-13T08:03:56.110Z,29.00
2019-03-13T08:06:24.384Z,29.30
2019-03-13T08:08:58.401Z,29.60
2019-03-13T08:11:32.614Z,29.90
2019-03-13T08:14:17.882Z,30.00
2019-03-13T08:16:46.151Z,31.50
2019-03-13T08:19:15.036Z,30.80
2019-03-13T08:21:59.761Z,30.80
2019-03-13T08:24:32.142Z,33.00
2019-03-13T08:27:03.464Z,35.00
2019-03-13T08:29:31.769Z,35.80
2019-03-13T08:32:16.747Z,38.20
2019-03-13T08:34:51.171Z,38.70
2019-03-13T08:37:25.378Z,39.10
2019-03-13T08:40:11.601Z,38.70
2019-03-13T08:42:58.311Z,39.50
2019-03-13T08:45:26.564Z,39.90
2019-03-13T08:48:13.170Z,39.60
2019-03-13T08:50:44.221Z,39.70
2019-03-13T08:53:29.013Z,39.50
2019-03-13T08:56:06.353Z,39.60
2019-03-13T08:58:37.321Z,39.70
2019-03-13T09:01:08.691Z,39.80
2019-03-13T09:03:39.947Z,40.40
2019-03-13T09:06:17.155Z,40.40
2019-03-13T09:08:54.311Z,40.50
2019-03-13T09:11:31.576Z,41.00
2019-03-13T09:14:02.608Z,40.90
2019-03-13T09:16:39.853Z,40.80
2019-03-13T09:19:24.702Z,41.50
2019-03-13T09:21:58.767Z,41.10
2019-03-13T09:24:43.998Z,41.40
2019-03-13T09:27:12.429Z,41.50
2019-03-13T09:29:49.992Z,41.60
2019-03-13T09:32:18.337Z,41.70
2019-03-13T09:35:04.657Z,41.80
2019-03-13T09:37:35.895Z,41.80
2019-03-13T09:40:09.598Z,41.50
2019-03-13T09:42:40.781Z,41.20
2019-03-13T09:45:16.577Z,40.70
2019-03-13T09:47:44.927Z,40.50
2019-03-13T09:50:18.903Z,40.70
2019-03-13T09:52:53.445Z,40.00
2019-03-13T09:55:21.784Z,40.00
2019-03-13T09:57:59.021Z,39.70
2019-03-13T10:00:46.193Z,39.60
2019-03-13T10:03:17.140Z,39.30
2019-03-13T10:05:58.412Z,40.00
2019-03-13T10:08:29.703Z,41.10
2019-03-13T10:11:07.129Z,40.30
2019-03-13T10:13:35.452Z,40.90
2019-03-13T10:16:06.812Z,40.30
2019-03-13T10:18:35.244Z,39.50
2019-03-13T10:21:09.586Z,39.80
2019-03-13T10:23:37.807Z,39.70
2019-03-13T10:26:06.016Z,40.50
2019-03-13T10:28:37.331Z,40.40
2019-03-13T10:31:18.887Z,40.20
2019-03-13T10:33:50.247Z,39.70
2019-03-13T10:36:27.412Z,39.50
2019-03-13T10:39:01.430Z,38.30
2019-03-13T10:41:43.750Z,38.30
2019-03-13T10:44:16.214Z,38.80
2019-03-13T10:46:44.489Z,38.20
2019-03-13T10:49:20.167Z,37.20
2019-03-13T10:51:53.078Z,36.60
2019-03-13T10:54:21.330Z,36.70
2019-03-13T10:56:49.641Z,36.50
2019-03-13T10:59:27.506Z,36.90
2019-03-13T11:02:13.759Z,37.40
2019-03-13T11:04:54.432Z,36.50
2019-03-13T11:07:28.558Z,37.20
2019-03-13T11:10:11.061Z,36.90
2019-03-13T11:12:51.677Z,36.60
2019-03-13T11:15:22.923Z,37.60
2019-03-13T11:17:54.038Z,37.30
2019-03-13T11:20:40.393Z,36.70
2019-03-13T11:23:12.178Z,36.50
2019-03-13T11:25:40.504Z,36.50
2019-03-13T11:28:14.818Z,37.30
2019-03-13T11:30:59.878Z,36.60
2019-03-13T11:33:31.349Z,36.80
2019-03-13T11:36:02.700Z,37.10
2019-03-13T11:38:37.029Z,36.90
2019-03-13T11:41:23.151Z,36.80
2019-03-13T11:44:02.010Z,37.30
2019-03-13T11:46:36.394Z,37.30
2019-03-13T11:49:10.749Z,37.30
2019-03-13T11:51:45.429Z,37.40
2019-03-13T11:54:16.638Z,37.10
2019-03-13T11:56:57.078Z,37.20
2019-03-13T11:59:40.788Z,37.50
2019-03-13T12:02:25.604Z,37.80
2019-03-13T12:04:53.813Z,37.40
2019-03-13T12:07:38.857Z,38.20
2019-03-13T12:10:16.830Z,38.50
2019-03-13T12:12:57.403Z,39.20
2019-03-13T12:15:37.859Z,41.00
2019-03-13T12:18:22.978Z,42.20
2019-03-13T12:20:54.033Z,42.60
2019-03-13T12:23:37.763Z,42.40
2019-03-13T12:26:08.733Z,42.30
2019-03-13T12:28:36.969Z,42.20
2019-03-13T12:31:13.852Z,42.70
2019-03-13T12:33:44.078Z,42.50
2019-03-13T12:36:12.320Z,43.10
2019-03-13T12:38:44.824Z,43.40
2019-03-13T12:41:19.044Z,44.10
2019-03-13T12:43:56.339Z,44.10
2019-03-13T12:46:27.621Z,44.20
2019-03-13T12:48:58.820Z,44.00
2019-03-13T12:51:29.733Z,43.40
2019-03-13T12:54:00.969Z,42.50
2019-03-13T12:56:30.278Z,41.40
2019-03-13T12:58:58.688Z,40.90
2019-03-13T13:01:40.428Z,41.90
2019-03-13T13:04:08.682Z,42.90
2019-03-13T13:06:42.936Z,43.50
2019-03-13T13:09:11.180Z,43.40
2019-03-13T13:11:47.334Z,44.20
2019-03-13T13:14:15.539Z,43.70
2019-03-13T13:19:22.022Z,43.60
2019-03-13T13:21:48.793Z,43.60
2019-03-13T13:24:15.406Z,44.20
2019-03-13T13:26:41.766Z,43.20
2019-03-13T13:29:08.129Z,43.70
2019-03-13T13:31:34.463Z,43.90
2019-03-13T13:34:00.789Z,42.90
2019-03-13T13:36:27.299Z,41.80
2019-03-13T13:38:53.643Z,39.30
2019-03-13T13:41:21.118Z,38.30
2019-03-13T13:43:47.451Z,37.20
2019-03-13T13:46:21.347Z,35.30
2019-03-13T13:48:47.673Z,36.10
2019-03-13T13:51:14.319Z,35.10
2019-03-13T13:53:40.711Z,34.10
2019-03-13T13:56:07.146Z,31.80
2019-03-13T13:58:33.505Z,33.40
2019-03-13T14:00:59.806Z,31.90
2019-03-13T14:03:26.110Z,32.50
2019-03-13T14:05:52.437Z,33.20
2019-03-13T14:08:18.755Z,32.00
2019-03-13T14:10:45.064Z,31.20
2019-03-13T14:13:11.400Z,30.20
2019-03-13T14:15:37.746Z,30.60
2019-03-13T14:18:04.047Z,30.20
2019-03-13T14:20:30.420Z,28.90
2019-03-13T14:22:56.726Z,29.00
2019-03-13T14:25:23.408Z,27.40
2019-03-13T14:27:49.725Z,27.40
2019-03-13T14:30:18.624Z,27.10
2019-03-13T14:32:44.912Z,26.90
2019-03-13T14:35:24.721Z,26.20
2019-03-13T14:37:51.149Z,25.80
2019-03-13T14:40:18.247Z,25.00
2019-03-13T14:42:45.126Z,24.80
2019-03-13T14:45:13.952Z,24.60
2019-03-13T14:47:40.402Z,24.50
2019-03-13T14:50:13.529Z,23.80
2019-03-13T14:52:40.036Z,23.30
2019-03-13T14:55:09.559Z,21.20
2019-03-13T14:57:36.074Z,18.90
2019-03-13T15:00:05.807Z,18.10
2019-03-13T15:02:33.384Z,20.90
2019-03-13T15:04:59.923Z,22.50
2019-03-13T15:07:26.209Z,18.90
2019-03-13T15:09:52.505Z,16.20
2019-03-13T15:12:18.954Z,15.30
2019-03-13T15:14:46.327Z,14.70
2019-03-13T15:17:12.650Z,14.70
2019-03-13T15:19:38.954Z,14.50
2019-03-13T15:22:05.263Z,14.10
2019-03-13T15:24:31.663Z,14.00
2019-03-13T15:26:58.966Z,14.00
2019-03-13T15:29:25.400Z,14.00
2019-03-13T15:31:51.703Z,13.90
2019-03-13T15:34:18.128Z,13.90
2019-03-13T15:36:44.652Z,14.60
2019-03-13T15:39:10.943Z,15.50
2019-03-13T15:41:38.858Z,15.30
2019-03-13T15:44:25.167Z,15.40
2019-03-13T15:46:51.689Z,15.60
2019-03-13T15:49:18.003Z,15.80
2019-03-13T15:51:44.331Z,16.50
2019-03-13T15:54:10.628Z,16.70
2019-03-13T15:56:36.916Z,17.30
2019-03-13T15:59:04.656Z,17.80
2019-03-13T16:01:32.371Z,18.90
2019-03-13T16:03:58.702Z,19.90
2019-03-13T16:06:25.005Z,19.80
2019-03-13T16:08:51.304Z,20.20
2019-03-13T16:11:28.776Z,20.30
2019-03-13T16:13:55.157Z,21.40
2019-03-13T16:16:21.497Z,22.20
2019-03-13T16:18:47.910Z,23.10
2019-03-13T16:21:14.222Z,24.50
2019-03-13T16:23:40.527Z,26.00
2019-03-13T16:26:06.827Z,27.50
2019-03-13T16:28:33.363Z,29.20
2019-03-13T16:31:00.087Z,31.90
2019-03-13T16:33:26.674Z,34.40
2019-03-13T16:35:53.095Z,36.60
2019-03-13T16:38:19.356Z,38.20
2019-03-13T16:40:45.785Z,39.40
2019-03-13T16:43:12.090Z,39.80
2019-03-13T16:45:38.873Z,40.70
2019-03-13T16:48:05.192Z,41.10
2019-03-13T16:50:33.190Z,41.40
2019-03-13T16:52:59.597Z,43.20
2019-03-13T16:55:26.193Z,45.10
2019-03-13T16:57:52.832Z,46.20
2019-03-13T17:00:29.255Z,47.30
2019-03-13T17:02:55.748Z,47.90
2019-03-13T17:05:22.241Z,48.90
2019-03-13T17:07:50.073Z,49.70
2019-03-13T17:10:22.388Z,49.60
2019-03-13T17:12:48.937Z,50.00
2019-03-13T17:15:20.225Z,51.40
2019-03-13T17:17:46.700Z,51.60
2019-03-13T17:20:15.545Z,51.60
2019-03-13T17:22:43.288Z,52.10
2019-03-13T17:25:14.209Z,52.50
2019-03-13T17:27:40.499Z,52.70
2019-03-13T17:30:11.006Z,53.00
2019-03-13T17:32:37.518Z,53.30
2019-03-13T17:35:04.251Z,53.80
2019-03-13T17:37:30.883Z,54.20
2019-03-13T17:39:57.168Z,54.40
2019-03-13T17:42:23.468Z,54.70
2019-03-13T17:44:49.782Z,55.00
2019-03-13T17:47:16.249Z,55.80
2019-03-13T17:50:03.512Z,55.30
2019-03-13T17:52:29.969Z,55.00
2019-03-13T17:55:19.855Z,55.00
2019-03-13T17:57:46.297Z,55.00
2019-03-13T18:00:27.555Z,55.40
2019-03-13T18:02:54.019Z,56.30
2019-03-13T18:05:21.750Z,55.60
2019-03-13T18:07:48.216Z,56.00
2019-03-13T18:10:17.686Z,56.20
2019-03-13T18:12:44.024Z,56.60
2019-03-13T18:15:11.427Z,57.00
2019-03-13T18:17:37.929Z,56.80
2019-03-13T18:20:17.501Z,56.30
2019-03-13T18:22:44.031Z,55.70
2019-03-13T18:25:12.462Z,55.60
2019-03-13T18:27:40.386Z,55.70
2019-03-13T18:30:10.402Z,55.90
2019-03-13T18:32:41.532Z,55.70
2019-03-13T18:35:07.438Z,55.70
2019-03-13T18:37:33.860Z,55.60
2019-03-13T18:40:00.409Z,55.60
2019-03-13T18:42:26.897Z,56.00
2019-03-13T18:44:53.796Z,56.10
2019-03-13T18:47:20.365Z,56.20
2019-03-13T18:49:46.929Z,56.10
2019-03-13T18:52:13.571Z,56.30
2019-03-13T18:54:40.211Z,56.30
2019-03-13T18:57:06.715Z,56.60
2019-03-13T18:59:33.573Z,56.80
2019-03-13T19:01:59.957Z,56.60
2019-03-13T19:04:26.303Z,56.70
2019-03-13T19:06:52.806Z,56.70
2019-03-13T19:09:19.712Z,57.10
2019-03-13T19:11:46.236Z,57.60
2019-03-13T19:14:12.659Z,57.90
2019-03-13T19:16:39.115Z,58.00
2019-03-13T19:19:05.855Z,58.10
2019-03-13T19:21:32.487Z,57.90
2019-03-13T19:23:58.975Z,58.00
2019-03-13T19:26:25.367Z,58.10
2019-03-13T19:28:52.187Z,58.80
2019-03-13T19:31:21.023Z,59.40
2019-03-13T19:33:48.020Z,59.70
2019-03-13T19:36:14.972Z,59.70
2019-03-13T19:38:41.981Z,59.60
2019-03-13T19:41:10.128Z,58.80
2019-03-13T19:43:37.113Z,58.90
2019-03-13T19:46:06.046Z,58.70
2019-03-13T19:48:33.206Z,58.50
2019-03-13T19:51:00.205Z,58.20
2019-03-13T19:53:27.071Z,58.40
2019-03-13T19:55:53.933Z,58.50
2019-03-13T19:58:23.331Z,59.10
2019-03-13T20:00:57.906Z,59.10
2019-03-13T20:03:29.313Z,58.90
2019-03-13T20:06:02.993Z,58.80
2019-03-13T20:08:32.183Z,59.00
2019-03-13T20:11:01.032Z,58.60
2019-03-13T20:13:28.532Z,58.60
2019-03-13T20:15:55.703Z,58.60
2019-03-13T20:18:24.313Z,59.00
2019-03-13T20:20:51.233Z,58.60
2019-03-13T20:23:18.166Z,58.50
2019-03-13T20:25:45.124Z,58.90
2019-03-13T20:28:12.559Z,58.50
2019-03-13T20:30:39.576Z,58.20
2019-03-13T20:33:06.782Z,58.60
2019-03-13T20:35:36.610Z,58.50
2019-03-13T20:38:02.502Z,58.70
2019-03-13T20:40:29.362Z,59.60
2019-03-13T20:42:56.485Z,59.50
2019-03-13T20:45:29.528Z,59.90
2019-03-13T20:47:56.460Z,59.80
2019-03-13T20:50:35.922Z,60.20
2019-03-13T20:52:52.344Z,60.20
2019-03-13T20:55:22.767Z,60.30
2019-03-13T20:57:49.715Z,60.60
2019-03-13T21:00:23.220Z,61.00
2019-03-13T21:02:51.415Z,61.30
2019-03-13T21:05:18.346Z,61.50
2019-03-13T21:07:45.388Z,61.60
2019-03-13T21:10:12.468Z,62.00
2019-03-13T21:12:39.560Z,62.50
2019-03-13T21:15:12.551Z,63.00
2019-03-13T21:17:59.269Z,63.20
2019-03-13T21:20:26.381Z,63.80
2019-03-13T21:22:53.435Z,64.20
2019-03-13T21:25:27.697Z,64.50
2019-03-13T21:27:54.659Z,64.90
2019-03-13T21:30:26.321Z,66.30
2019-03-13T21:32:53.956Z,64.90
2019-03-13T21:35:21.592Z,67.50
2019-03-13T21:37:48.747Z,68.30
2019-03-13T21:40:17.524Z,68.60
2019-03-13T21:42:44.114Z,68.40
2019-03-13T21:45:21.690Z,67.70
2019-03-13T21:47:40.404Z,69.00
2019-03-13T21:50:11.809Z,67.20
2019-03-13T21:52:38.291Z,67.50
2019-03-13T21:55:08.529Z,67.20
2019-03-13T21:57:34.969Z,67.00
2019-03-13T22:00:03.962Z,66.60
2019-03-13T22:02:33.990Z,67.50
2019-03-13T22:05:00.571Z,67.30
2019-03-13T22:07:26.990Z,67.80
2019-03-13T22:09:53.514Z,67.80
2019-03-13T22:12:19.926Z,67.90
2019-03-13T22:14:46.322Z,67.50
2019-03-13T22:17:13.844Z,67.70
2019-03-13T22:19:40.211Z,68.00
2019-03-13T22:22:06.595Z,67.70
2019-03-13T22:24:33.112Z,68.20
2019-03-13T22:26:59.499Z,68.30
2019-03-13T22:29:25.818Z,67.50
2019-03-13T22:31:52.233Z,67.70
2019-03-13T22:34:18.513Z,67.30
2019-03-13T22:36:45.653Z,67.20
2019-03-13T22:39:11.943Z,67.40
2019-03-13T22:41:51.538Z,68.50
2019-03-13T22:44:17.977Z,68.40
2019-03-13T22:46:44.417Z,68.60
2019-03-13T22:49:10.763Z,70.60
2019-03-13T22:51:37.297Z,68.70
2019-03-13T22:54:03.922Z,68.90
2019-03-13T22:56:30.268Z,68.40
2019-03-13T22:58:57.203Z,68.10
2019-03-13T23:01:23.938Z,68.00
2019-03-13T23:03:51.445Z,67.80
2019-03-13T23:06:17.885Z,67.80
2019-03-13T23:08:44.907Z,70.60
2019-03-13T23:11:11.553Z,67.90
2019-03-13T23:13:37.976Z,68.00
2019-03-13T23:16:06.386Z,67.90
2019-03-13T23:18:37.952Z,67.50
2019-03-13T23:21:09.219Z,67.40
2019-03-13T23:23:36.578Z,67.50
2019-03-13T23:26:07.662Z,67.70
2019-03-13T23:28:34.970Z,68.00
2019-03-13T23:31:01.454Z,68.10
2019-03-13T23:33:27.741Z,68.10
2019-03-13T23:35:54.052Z,68.10
2019-03-13T23:38:33.493Z,68.60
2019-03-13T23:40:59.898Z,68.70
2019-03-13T23:43:26.209Z,68.50
2019-03-13T23:46:05.619Z,67.90
2019-03-13T23:48:32.033Z,67.90
2019-03-13T23:50:59.519Z,67.50
2019-03-13T23:53:25.917Z,67.30
2019-03-13T23:56:12.059Z,66.70
2019-03-13T23:58:39.479Z,66.60
